sensor_id;sensor_type;location;lat;lon;timestamp;P1;durP1;ratioP1;P2;durP2;ratioP2
77705;SDS011;66874;45.274;5.880;2024-03-02T00:01:58;15.70;;;7.68;;
77705;SDS011;66874;45.274;5.880;2024-03-02T00:04:23;15.95;;;7.50;;
77705;SDS011;66874;45.274;5.880;2024-03-02T00:06:51;14.93;;;7.22;;
77705;SDS011;66874;45.274;5.880;2024-03-02T00:09:19;15.07;;;6.70;;
77705;SDS011;66874;45.274;5.880;2024-03-02T00:11:45;18.05;;;7.30;;
77705;SDS011;66874;45.274;5.880;2024-03-02T00:14:11;14.82;;;7.47;;
77705;SDS011;66874;45.274;5.880;2024-03-02T00:16:36;14.57;;;6.75;;
77705;SDS011;66874;45.274;5.880;2024-03-02T00:19:05;14.90;;;7.15;;
77705;SDS011;66874;45.274;5.880;2024-03-02T00:21:32;13.88;;;7.47;;
77705;SDS011;66874;45.274;5.880;2024-03-02T00:23:58;16.25;;;6.57;;
77705;SDS011;66874;45.274;5.880;2024-03-02T00:26:25;18.48;;;8.27;;
77705;SDS011;66874;45.274;5.880;2024-03-02T00:28:50;17.67;;;7.63;;
77705;SDS011;66874;45.274;5.880;2024-03-02T00:31:20;14.20;;;6.90;;
77705;SDS011;66874;45.274;5.880;2024-03-02T00:33:48;13.07;;;6.97;;
77705;SDS011;66874;45.274;5.880;2024-03-02T00:36:26;15.48;;;7.43;;
77705;SDS011;66874;45.274;5.880;2024-03-02T00:38:53;17.85;;;7.45;;
77705;SDS011;66874;45.274;5.880;2024-03-02T00:46:34;15.70;;;6.30;;
77705;SDS011;66874;45.274;5.880;2024-03-02T00:49:23;14.65;;;6.30;;
77705;SDS011;66874;45.274;5.880;2024-03-02T00:51:51;17.70;;;6.68;;
77705;SDS011;66874;45.274;5.880;2024-03-02T00:54:21;19.95;;;9.82;;
77705;SDS011;66874;45.274;5.880;2024-03-02T00:56:49;25.52;;;12.98;;
77705;SDS011;66874;45.274;5.880;2024-03-02T00:59:15;21.98;;;10.40;;
77705;SDS011;66874;45.274;5.880;2024-03-02T01:01:40;18.02;;;9.90;;
77705;SDS011;66874;45.274;5.880;2024-03-02T01:04:07;13.65;;;7.38;;
77705;SDS011;66874;45.274;5.880;2024-03-02T01:06:32;16.08;;;7.60;;
77705;SDS011;66874;45.274;5.880;2024-03-02T01:08:58;8.98;;;5.03;;
77705;SDS011;66874;45.274;5.880;2024-03-02T01:11:24;10.15;;;5.47;;
77705;SDS011;66874;45.274;5.880;2024-03-02T01:13:49;9.98;;;5.05;;
77705;SDS011;66874;45.274;5.880;2024-03-02T01:16:15;8.32;;;4.00;;
77705;SDS011;66874;45.274;5.880;2024-03-02T01:18:41;6.97;;;4.28;;
77705;SDS011;66874;45.274;5.880;2024-03-02T01:21:07;7.05;;;4.28;;
77705;SDS011;66874;45.274;5.880;2024-03-02T01:23:32;7.03;;;3.42;;
77705;SDS011;66874;45.274;5.880;2024-03-02T01:25:58;6.57;;;3.80;;
77705;SDS011;66874;45.274;5.880;2024-03-02T01:28:23;10.80;;;4.13;;
77705;SDS011;66874;45.274;5.880;2024-03-02T01:30:49;5.65;;;3.75;;
77705;SDS011;66874;45.274;5.880;2024-03-02T01:33:14;8.00;;;3.90;;
77705;SDS011;66874;45.274;5.880;2024-03-02T01:35:40;7.28;;;4.13;;
77705;SDS011;66874;45.274;5.880;2024-03-02T01:38:06;10.50;;;6.60;;
77705;SDS011;66874;45.274;5.880;2024-03-02T01:40:32;5.93;;;3.30;;
77705;SDS011;66874;45.274;5.880;2024-03-02T01:43:01;6.53;;;2.97;;
77705;SDS011;66874;45.274;5.880;2024-03-02T01:45:27;5.22;;;3.40;;
77705;SDS011;66874;45.274;5.880;2024-03-02T01:47:53;7.43;;;2.60;;
77705;SDS011;66874;45.274;5.880;2024-03-02T01:50:28;7.13;;;3.20;;
77705;SDS011;66874;45.274;5.880;2024-03-02T01:52:57;14.05;;;3.42;;
77705;SDS011;66874;45.274;5.880;2024-03-02T01:55:23;4.57;;;2.80;;
77705;SDS011;66874;45.274;5.880;2024-03-02T01:57:49;7.28;;;4.22;;
77705;SDS011;66874;45.274;5.880;2024-03-02T02:00:19;7.40;;;3.63;;
77705;SDS011;66874;45.274;5.880;2024-03-02T02:02:46;6.30;;;4.18;;
77705;SDS011;66874;45.274;5.880;2024-03-02T02:05:12;11.57;;;6.07;;
77705;SDS011;66874;45.274;5.880;2024-03-02T02:07:38;9.65;;;5.45;;
77705;SDS011;66874;45.274;5.880;2024-03-02T02:10:05;10.88;;;5.32;;
77705;SDS011;66874;45.274;5.880;2024-03-02T02:12:31;10.52;;;5.68;;
77705;SDS011;66874;45.274;5.880;2024-03-02T02:14:57;8.45;;;4.47;;
77705;SDS011;66874;45.274;5.880;2024-03-02T02:17:22;10.20;;;5.60;;
77705;SDS011;66874;45.274;5.880;2024-03-02T02:19:47;9.00;;;5.03;;
77705;SDS011;66874;45.274;5.880;2024-03-02T02:22:13;8.95;;;5.10;;
77705;SDS011;66874;45.274;5.880;2024-03-02T02:24:41;12.20;;;6.05;;
77705;SDS011;66874;45.274;5.880;2024-03-02T02:27:07;7.60;;;4.47;;
77705;SDS011;66874;45.274;5.880;2024-03-02T02:29:33;10.00;;;4.88;;
77705;SDS011;66874;45.274;5.880;2024-03-02T02:31:59;10.60;;;4.78;;
77705;SDS011;66874;45.274;5.880;2024-03-02T02:34:25;7.63;;;4.63;;
77705;SDS011;66874;45.274;5.880;2024-03-02T02:36:50;6.65;;;4.40;;
77705;SDS011;66874;45.274;5.880;2024-03-02T02:39:16;8.15;;;5.05;;
77705;SDS011;66874;45.274;5.880;2024-03-02T02:41:45;8.05;;;4.63;;
77705;SDS011;66874;45.274;5.880;2024-03-02T02:44:10;8.07;;;4.18;;
77705;SDS011;66874;45.274;5.880;2024-03-02T02:46:39;8.55;;;4.20;;
77705;SDS011;66874;45.274;5.880;2024-03-02T02:49:05;9.57;;;4.10;;
77705;SDS011;66874;45.274;5.880;2024-03-02T02:51:30;9.52;;;4.00;;
77705;SDS011;66874;45.274;5.880;2024-03-02T02:53:56;7.32;;;3.28;;
77705;SDS011;66874;45.274;5.880;2024-03-02T02:56:21;7.85;;;4.05;;
77705;SDS011;66874;45.274;5.880;2024-03-02T02:58:47;7.00;;;3.70;;
77705;SDS011;66874;45.274;5.880;2024-03-02T03:01:12;5.57;;;3.38;;
77705;SDS011;66874;45.274;5.880;2024-03-02T03:03:38;6.70;;;4.03;;
77705;SDS011;66874;45.274;5.880;2024-03-02T03:06:03;6.13;;;3.60;;
77705;SDS011;66874;45.274;5.880;2024-03-02T03:08:29;6.65;;;3.80;;
77705;SDS011;66874;45.274;5.880;2024-03-02T03:10:54;10.38;;;5.30;;
77705;SDS011;66874;45.274;5.880;2024-03-02T03:13:19;9.48;;;4.70;;
77705;SDS011;66874;45.274;5.880;2024-03-02T03:15:45;11.77;;;4.97;;
77705;SDS011;66874;45.274;5.880;2024-03-02T03:18:10;9.35;;;5.85;;
77705;SDS011;66874;45.274;5.880;2024-03-02T03:20:35;8.98;;;4.95;;
77705;SDS011;66874;45.274;5.880;2024-03-02T03:23:01;10.45;;;5.20;;
77705;SDS011;66874;45.274;5.880;2024-03-02T03:25:26;9.57;;;5.55;;
77705;SDS011;66874;45.274;5.880;2024-03-02T03:27:52;8.48;;;5.30;;
77705;SDS011;66874;45.274;5.880;2024-03-02T03:30:17;8.15;;;4.97;;
77705;SDS011;66874;45.274;5.880;2024-03-02T03:32:43;8.27;;;4.65;;
77705;SDS011;66874;45.274;5.880;2024-03-02T03:35:08;6.97;;;4.70;;
77705;SDS011;66874;45.274;5.880;2024-03-02T03:37:34;8.02;;;5.43;;
77705;SDS011;66874;45.274;5.880;2024-03-02T03:40:00;9.73;;;4.38;;
77705;SDS011;66874;45.274;5.880;2024-03-02T03:42:26;7.78;;;4.72;;
77705;SDS011;66874;45.274;5.880;2024-03-02T03:44:51;8.63;;;4.75;;
77705;SDS011;66874;45.274;5.880;2024-03-02T03:47:17;10.77;;;4.82;;
77705;SDS011;66874;45.274;5.880;2024-03-02T03:49:42;11.30;;;5.57;;
77705;SDS011;66874;45.274;5.880;2024-03-02T03:52:08;8.85;;;4.65;;
77705;SDS011;66874;45.274;5.880;2024-03-02T03:54:33;9.88;;;5.53;;
77705;SDS011;66874;45.274;5.880;2024-03-02T03:56:58;9.80;;;5.40;;
77705;SDS011;66874;45.274;5.880;2024-03-02T03:59:24;9.00;;;4.82;;
77705;SDS011;66874;45.274;5.880;2024-03-02T04:01:49;7.80;;;4.38;;
77705;SDS011;66874;45.274;5.880;2024-03-02T04:04:14;7.45;;;4.82;;
77705;SDS011;66874;45.274;5.880;2024-03-02T04:06:40;8.23;;;4.80;;
77705;SDS011;66874;45.274;5.880;2024-03-02T04:09:05;15.27;;;5.35;;
77705;SDS011;66874;45.274;5.880;2024-03-02T04:11:31;9.82;;;5.18;;
77705;SDS011;66874;45.274;5.880;2024-03-02T04:13:56;10.85;;;5.45;;
77705;SDS011;66874;45.274;5.880;2024-03-02T04:16:21;12.30;;;5.40;;
77705;SDS011;66874;45.274;5.880;2024-03-02T04:18:47;9.15;;;5.05;;
77705;SDS011;66874;45.274;5.880;2024-03-02T04:21:12;7.30;;;4.97;;
77705;SDS011;66874;45.274;5.880;2024-03-02T04:23:38;10.30;;;5.00;;
77705;SDS011;66874;45.274;5.880;2024-03-02T04:26:03;11.85;;;5.25;;
77705;SDS011;66874;45.274;5.880;2024-03-02T04:28:29;9.15;;;5.40;;
77705;SDS011;66874;45.274;5.880;2024-03-02T04:30:55;9.77;;;5.00;;
77705;SDS011;66874;45.274;5.880;2024-03-02T04:33:21;9.43;;;5.72;;
77705;SDS011;66874;45.274;5.880;2024-03-02T04:35:46;10.32;;;5.07;;
77705;SDS011;66874;45.274;5.880;2024-03-02T04:38:12;9.20;;;5.43;;
77705;SDS011;66874;45.274;5.880;2024-03-02T04:40:37;7.75;;;5.28;;
77705;SDS011;66874;45.274;5.880;2024-03-02T04:43:02;9.57;;;5.25;;
77705;SDS011;66874;45.274;5.880;2024-03-02T04:45:28;8.40;;;4.97;;
77705;SDS011;66874;45.274;5.880;2024-03-02T04:47:54;9.63;;;5.68;;
77705;SDS011;66874;45.274;5.880;2024-03-02T04:50:19;9.75;;;5.82;;
77705;SDS011;66874;45.274;5.880;2024-03-02T04:52:44;12.23;;;5.93;;
77705;SDS011;66874;45.274;5.880;2024-03-02T04:55:10;9.07;;;5.93;;
77705;SDS011;66874;45.274;5.880;2024-03-02T04:57:49;12.38;;;5.28;;
77705;SDS011;66874;45.274;5.880;2024-03-02T05:00:16;8.95;;;6.00;;
77705;SDS011;66874;45.274;5.880;2024-03-02T05:02:42;8.57;;;5.75;;
77705;SDS011;66874;45.274;5.880;2024-03-02T05:05:07;9.13;;;5.30;;
77705;SDS011;66874;45.274;5.880;2024-03-02T05:07:33;12.93;;;6.00;;
77705;SDS011;66874;45.274;5.880;2024-03-02T05:09:58;8.77;;;5.40;;
77705;SDS011;66874;45.274;5.880;2024-03-02T05:12:24;11.90;;;6.03;;
77705;SDS011;66874;45.274;5.880;2024-03-02T05:15:08;12.35;;;6.28;;
77705;SDS011;66874;45.274;5.880;2024-03-02T05:17:36;14.20;;;6.28;;
77705;SDS011;66874;45.274;5.880;2024-03-02T05:20:03;9.60;;;5.70;;
77705;SDS011;66874;45.274;5.880;2024-03-02T05:22:29;12.43;;;5.70;;
77705;SDS011;66874;45.274;5.880;2024-03-02T05:24:54;11.50;;;6.47;;
77705;SDS011;66874;45.274;5.880;2024-03-02T05:27:19;11.77;;;5.07;;
77705;SDS011;66874;45.274;5.880;2024-03-02T05:29:45;11.88;;;5.68;;
77705;SDS011;66874;45.274;5.880;2024-03-02T05:32:12;9.18;;;5.63;;
77705;SDS011;66874;45.274;5.880;2024-03-02T05:34:37;7.35;;;5.05;;
77705;SDS011;66874;45.274;5.880;2024-03-02T05:37:03;8.32;;;5.78;;
77705;SDS011;66874;45.274;5.880;2024-03-02T05:39:28;8.45;;;5.15;;
77705;SDS011;66874;45.274;5.880;2024-03-02T05:41:53;9.82;;;5.47;;
77705;SDS011;66874;45.274;5.880;2024-03-02T05:44:19;11.57;;;6.03;;
77705;SDS011;66874;45.274;5.880;2024-03-02T05:46:44;9.85;;;5.63;;
77705;SDS011;66874;45.274;5.880;2024-03-02T05:49:10;10.27;;;5.93;;
77705;SDS011;66874;45.274;5.880;2024-03-02T05:51:35;8.52;;;5.38;;
77705;SDS011;66874;45.274;5.880;2024-03-02T05:54:01;10.82;;;5.88;;
77705;SDS011;66874;45.274;5.880;2024-03-02T05:56:26;8.75;;;5.30;;
77705;SDS011;66874;45.274;5.880;2024-03-02T05:58:52;8.73;;;5.05;;
77705;SDS011;66874;45.274;5.880;2024-03-02T06:01:36;7.50;;;5.20;;
77705;SDS011;66874;45.274;5.880;2024-03-02T06:04:02;8.23;;;5.07;;
77705;SDS011;66874;45.274;5.880;2024-03-02T06:06:27;8.02;;;5.35;;
77705;SDS011;66874;45.274;5.880;2024-03-02T06:08:53;9.00;;;4.82;;
77705;SDS011;66874;45.274;5.880;2024-03-02T06:11:19;9.07;;;4.70;;
77705;SDS011;66874;45.274;5.880;2024-03-02T06:13:45;8.73;;;4.93;;
77705;SDS011;66874;45.274;5.880;2024-03-02T06:16:10;14.75;;;5.25;;
77705;SDS011;66874;45.274;5.880;2024-03-02T06:18:36;9.25;;;4.88;;
77705;SDS011;66874;45.274;5.880;2024-03-02T06:21:01;9.82;;;5.05;;
77705;SDS011;66874;45.274;5.880;2024-03-02T06:23:27;9.88;;;5.72;;
77705;SDS011;66874;45.274;5.880;2024-03-02T06:25:52;10.35;;;5.10;;
77705;SDS011;66874;45.274;5.880;2024-03-02T06:28:18;12.00;;;5.53;;
77705;SDS011;66874;45.274;5.880;2024-03-02T06:30:43;11.57;;;4.75;;
77705;SDS011;66874;45.274;5.880;2024-03-02T06:33:09;9.35;;;5.35;;
77705;SDS011;66874;45.274;5.880;2024-03-02T06:35:34;8.23;;;4.95;;
77705;SDS011;66874;45.274;5.880;2024-03-02T06:38:00;7.90;;;4.65;;
77705;SDS011;66874;45.274;5.880;2024-03-02T06:40:26;7.03;;;4.97;;
77705;SDS011;66874;45.274;5.880;2024-03-02T06:42:51;7.65;;;4.53;;
77705;SDS011;66874;45.274;5.880;2024-03-02T06:45:16;8.75;;;5.40;;
77705;SDS011;66874;45.274;5.880;2024-03-02T06:47:42;12.43;;;5.28;;
77705;SDS011;66874;45.274;5.880;2024-03-02T06:50:07;11.38;;;5.28;;
77705;SDS011;66874;45.274;5.880;2024-03-02T06:52:34;11.23;;;4.90;;
77705;SDS011;66874;45.274;5.880;2024-03-02T06:55:00;11.18;;;6.25;;
77705;SDS011;66874;45.274;5.880;2024-03-02T06:57:25;12.32;;;7.60;;
77705;SDS011;66874;45.274;5.880;2024-03-02T06:59:50;14.15;;;6.85;;
77705;SDS011;66874;45.274;5.880;2024-03-02T07:02:19;15.93;;;6.50;;
77705;SDS011;66874;45.274;5.880;2024-03-02T07:04:44;9.15;;;4.80;;
77705;SDS011;66874;45.274;5.880;2024-03-02T07:07:10;11.75;;;5.63;;
77705;SDS011;66874;45.274;5.880;2024-03-02T07:09:36;10.02;;;5.53;;
77705;SDS011;66874;45.274;5.880;2024-03-02T07:12:01;10.77;;;6.20;;
77705;SDS011;66874;45.274;5.880;2024-03-02T07:14:26;9.93;;;5.35;;
77705;SDS011;66874;45.274;5.880;2024-03-02T07:17:12;8.98;;;5.13;;
77705;SDS011;66874;45.274;5.880;2024-03-02T07:19:37;10.18;;;6.28;;
77705;SDS011;66874;45.274;5.880;2024-03-02T07:22:05;12.85;;;6.90;;
77705;SDS011;66874;45.274;5.880;2024-03-02T07:24:38;18.65;;;10.10;;
77705;SDS011;66874;45.274;5.880;2024-03-02T07:27:04;18.95;;;10.35;;
77705;SDS011;66874;45.274;5.880;2024-03-02T07:29:30;13.65;;;8.40;;
77705;SDS011;66874;45.274;5.880;2024-03-02T07:31:55;12.32;;;6.63;;
77705;SDS011;66874;45.274;5.880;2024-03-02T07:34:21;12.63;;;6.55;;
77705;SDS011;66874;45.274;5.880;2024-03-02T07:36:46;11.95;;;6.63;;
77705;SDS011;66874;45.274;5.880;2024-03-02T07:39:12;11.48;;;7.20;;
77705;SDS011;66874;45.274;5.880;2024-03-02T07:41:37;12.73;;;6.65;;
77705;SDS011;66874;45.274;5.880;2024-03-02T07:44:03;13.13;;;6.18;;
77705;SDS011;66874;45.274;5.880;2024-03-02T07:46:28;13.15;;;6.90;;
77705;SDS011;66874;45.274;5.880;2024-03-02T07:48:54;14.88;;;7.15;;
77705;SDS011;66874;45.274;5.880;2024-03-02T07:51:19;11.23;;;6.85;;
77705;SDS011;66874;45.274;5.880;2024-03-02T07:53:45;14.65;;;6.95;;
77705;SDS011;66874;45.274;5.880;2024-03-02T07:56:10;11.38;;;5.25;;
77705;SDS011;66874;45.274;5.880;2024-03-02T07:58:35;8.98;;;4.85;;
77705;SDS011;66874;45.274;5.880;2024-03-02T08:01:01;8.93;;;5.07;;
77705;SDS011;66874;45.274;5.880;2024-03-02T08:03:27;7.10;;;3.90;;
77705;SDS011;66874;45.274;5.880;2024-03-02T08:05:52;7.63;;;4.60;;
77705;SDS011;66874;45.274;5.880;2024-03-02T08:08:18;10.20;;;4.70;;
77705;SDS011;66874;45.274;5.880;2024-03-02T08:10:43;8.38;;;4.90;;
77705;SDS011;66874;45.274;5.880;2024-03-02T08:13:09;7.30;;;4.55;;
77705;SDS011;66874;45.274;5.880;2024-03-02T08:15:34;8.50;;;4.45;;
77705;SDS011;66874;45.274;5.880;2024-03-02T08:18:00;7.72;;;4.57;;
77705;SDS011;66874;45.274;5.880;2024-03-02T08:20:26;9.10;;;4.97;;
77705;SDS011;66874;45.274;5.880;2024-03-02T08:22:51;11.50;;;4.82;;
77705;SDS011;66874;45.274;5.880;2024-03-02T08:25:20;9.23;;;4.60;;
77705;SDS011;66874;45.274;5.880;2024-03-02T08:27:45;6.63;;;3.70;;
77705;SDS011;66874;45.274;5.880;2024-03-02T08:30:11;6.88;;;4.25;;
77705;SDS011;66874;45.274;5.880;2024-03-02T08:32:37;5.75;;;3.90;;
77705;SDS011;66874;45.274;5.880;2024-03-02T08:35:02;8.70;;;4.05;;
77705;SDS011;66874;45.274;5.880;2024-03-02T08:37:29;7.70;;;3.97;;
77705;SDS011;66874;45.274;5.880;2024-03-02T08:39:54;7.15;;;3.85;;
77705;SDS011;66874;45.274;5.880;2024-03-02T08:42:20;7.53;;;3.92;;
77705;SDS011;66874;45.274;5.880;2024-03-02T08:44:45;7.97;;;3.40;;
77705;SDS011;66874;45.274;5.880;2024-03-02T08:47:11;7.15;;;3.20;;
77705;SDS011;66874;45.274;5.880;2024-03-02T08:49:36;4.68;;;2.97;;
77705;SDS011;66874;45.274;5.880;2024-03-02T08:52:02;8.13;;;3.78;;
77705;SDS011;66874;45.274;5.880;2024-03-02T08:54:27;30.58;;;16.88;;
77705;SDS011;66874;45.274;5.880;2024-03-02T08:56:53;5.85;;;3.80;;
77705;SDS011;66874;45.274;5.880;2024-03-02T08:59:18;4.22;;;2.40;;
77705;SDS011;66874;45.274;5.880;2024-03-02T09:01:44;5.97;;;2.40;;
77705;SDS011;66874;45.274;5.880;2024-03-02T09:04:10;4.07;;;2.22;;
77705;SDS011;66874;45.274;5.880;2024-03-02T09:06:35;3.17;;;2.10;;
77705;SDS011;66874;45.274;5.880;2024-03-02T09:09:00;4.13;;;2.50;;
77705;SDS011;66874;45.274;5.880;2024-03-02T09:11:26;3.72;;;2.42;;
77705;SDS011;66874;45.274;5.880;2024-03-02T09:13:52;2.28;;;1.50;;
77705;SDS011;66874;45.274;5.880;2024-03-02T09:16:18;3.35;;;1.70;;
77705;SDS011;66874;45.274;5.880;2024-03-02T09:18:43;5.10;;;2.55;;
77705;SDS011;66874;45.274;5.880;2024-03-02T09:21:09;3.53;;;2.30;;
77705;SDS011;66874;45.274;5.880;2024-03-02T09:23:35;2.88;;;2.00;;
77705;SDS011;66874;45.274;5.880;2024-03-02T09:26:00;6.95;;;2.40;;
77705;SDS011;66874;45.274;5.880;2024-03-02T09:28:25;2.92;;;1.85;;
77705;SDS011;66874;45.274;5.880;2024-03-02T09:30:51;4.93;;;2.65;;
77705;SDS011;66874;45.274;5.880;2024-03-02T09:33:16;2.80;;;2.08;;
77705;SDS011;66874;45.274;5.880;2024-03-02T09:35:42;5.05;;;2.00;;
77705;SDS011;66874;45.274;5.880;2024-03-02T09:38:07;3.83;;;2.20;;
77705;SDS011;66874;45.274;5.880;2024-03-02T09:40:32;6.60;;;2.83;;
77705;SDS011;66874;45.274;5.880;2024-03-02T09:42:58;3.90;;;2.45;;
77705;SDS011;66874;45.274;5.880;2024-03-02T09:45:24;5.32;;;2.60;;
77705;SDS011;66874;45.274;5.880;2024-03-02T09:47:50;3.28;;;2.35;;
77705;SDS011;66874;45.274;5.880;2024-03-02T09:50:16;9.40;;;2.90;;
77705;SDS011;66874;45.274;5.880;2024-03-02T09:52:47;6.88;;;2.38;;
77705;SDS011;66874;45.274;5.880;2024-03-02T09:55:14;3.53;;;2.47;;
77705;SDS011;66874;45.274;5.880;2024-03-02T09:57:40;4.47;;;2.67;;
77705;SDS011;66874;45.274;5.880;2024-03-02T10:00:07;6.30;;;3.35;;
77705;SDS011;66874;45.274;5.880;2024-03-02T10:02:33;4.85;;;2.78;;
77705;SDS011;66874;45.274;5.880;2024-03-02T10:04:58;5.43;;;3.42;;
77705;SDS011;66874;45.274;5.880;2024-03-02T10:07:24;5.43;;;2.92;;
77705;SDS011;66874;45.274;5.880;2024-03-02T10:09:49;5.00;;;2.83;;
77705;SDS011;66874;45.274;5.880;2024-03-02T10:12:17;4.45;;;2.83;;
77705;SDS011;66874;45.274;5.880;2024-03-02T10:14:43;6.65;;;5.00;;
77705;SDS011;66874;45.274;5.880;2024-03-02T10:17:10;9.20;;;4.63;;
77705;SDS011;66874;45.274;5.880;2024-03-02T10:19:37;6.35;;;3.50;;
77705;SDS011;66874;45.274;5.880;2024-03-02T10:22:04;9.30;;;4.47;;
77705;SDS011;66874;45.274;5.880;2024-03-02T10:24:40;5.10;;;2.88;;
77705;SDS011;66874;45.274;5.880;2024-03-02T10:27:07;14.10;;;8.10;;
77705;SDS011;66874;45.274;5.880;2024-03-02T10:29:36;14.80;;;7.57;;
77705;SDS011;66874;45.274;5.880;2024-03-02T10:32:02;4.20;;;2.67;;
77705;SDS011;66874;45.274;5.880;2024-03-02T10:34:28;4.57;;;2.70;;
77705;SDS011;66874;45.274;5.880;2024-03-02T10:36:53;4.00;;;2.55;;
77705;SDS011;66874;45.274;5.880;2024-03-02T10:39:20;6.25;;;2.28;;
77705;SDS011;66874;45.274;5.880;2024-03-02T10:41:46;8.60;;;3.60;;
77705;SDS011;66874;45.274;5.880;2024-03-02T10:44:14;10.05;;;4.38;;
77705;SDS011;66874;45.274;5.880;2024-03-02T10:46:41;15.13;;;7.30;;
77705;SDS011;66874;45.274;5.880;2024-03-02T10:49:09;8.40;;;3.35;;
77705;SDS011;66874;45.274;5.880;2024-03-02T10:51:34;5.35;;;2.85;;
77705;SDS011;66874;45.274;5.880;2024-03-02T10:54:01;57.05;;;24.85;;
77705;SDS011;66874;45.274;5.880;2024-03-02T10:56:31;38.70;;;18.20;;
77705;SDS011;66874;45.274;5.880;2024-03-02T11:01:59;6.55;;;3.38;;
77705;SDS011;66874;45.274;5.880;2024-03-02T11:04:26;4.65;;;2.80;;
77705;SDS011;66874;45.274;5.880;2024-03-02T11:06:54;7.00;;;3.60;;
77705;SDS011;66874;45.274;5.880;2024-03-02T11:09:25;5.00;;;3.20;;
77705;SDS011;66874;45.274;5.880;2024-03-02T11:11:54;5.55;;;3.88;;
77705;SDS011;66874;45.274;5.880;2024-03-02T11:14:24;4.30;;;3.22;;
77705;SDS011;66874;45.274;5.880;2024-03-02T11:16:50;2.50;;;1.83;;
77705;SDS011;66874;45.274;5.880;2024-03-02T11:19:17;3.03;;;2.30;;
77705;SDS011;66874;45.274;5.880;2024-03-02T11:21:43;2.00;;;1.33;;
77705;SDS011;66874;45.274;5.880;2024-03-02T11:26:53;2.80;;;1.92;;
77705;SDS011;66874;45.274;5.880;2024-03-02T11:32:03;7.75;;;5.15;;
77705;SDS011;66874;45.274;5.880;2024-03-02T11:34:31;3.05;;;2.03;;
77705;SDS011;66874;45.274;5.880;2024-03-02T11:36:57;5.72;;;4.30;;
77705;SDS011;66874;45.274;5.880;2024-03-02T11:39:24;1.75;;;1.48;;
77705;SDS011;66874;45.274;5.880;2024-03-02T11:41:52;3.47;;;2.00;;
77705;SDS011;66874;45.274;5.880;2024-03-02T11:44:17;3.17;;;1.65;;
77705;SDS011;66874;45.274;5.880;2024-03-02T11:47:00;2.70;;;1.85;;
77705;SDS011;66874;45.274;5.880;2024-03-02T11:49:38;2.50;;;1.70;;
77705;SDS011;66874;45.274;5.880;2024-03-02T11:52:12;1.77;;;1.30;;
77705;SDS011;66874;45.274;5.880;2024-03-02T11:54:39;2.58;;;1.25;;
77705;SDS011;66874;45.274;5.880;2024-03-02T11:57:11;2.08;;;1.13;;
77705;SDS011;66874;45.274;5.880;2024-03-02T11:59:36;1.08;;;0.85;;
77705;SDS011;66874;45.274;5.880;2024-03-02T12:02:02;2.25;;;1.20;;
77705;SDS011;66874;45.274;5.880;2024-03-02T12:04:27;3.03;;;1.10;;
77705;SDS011;66874;45.274;5.880;2024-03-02T12:06:55;2.30;;;1.48;;
77705;SDS011;66874;45.274;5.880;2024-03-02T12:09:21;1.85;;;1.00;;
77705;SDS011;66874;45.274;5.880;2024-03-02T12:11:47;1.50;;;1.10;;
77705;SDS011;66874;45.274;5.880;2024-03-02T12:14:13;1.80;;;1.10;;
77705;SDS011;66874;45.274;5.880;2024-03-02T12:16:38;1.38;;;0.93;;
77705;SDS011;66874;45.274;5.880;2024-03-02T12:19:05;1.83;;;1.05;;
77705;SDS011;66874;45.274;5.880;2024-03-02T12:21:31;2.08;;;1.20;;
77705;SDS011;66874;45.274;5.880;2024-03-02T12:23:56;4.22;;;1.05;;
77705;SDS011;66874;45.274;5.880;2024-03-02T12:26:22;2.92;;;1.23;;
77705;SDS011;66874;45.274;5.880;2024-03-02T12:28:48;1.80;;;1.10;;
77705;SDS011;66874;45.274;5.880;2024-03-02T12:31:14;2.78;;;1.35;;
77705;SDS011;66874;45.274;5.880;2024-03-02T12:33:40;1.63;;;0.95;;
77705;SDS011;66874;45.274;5.880;2024-03-02T12:36:09;1.98;;;1.05;;
77705;SDS011;66874;45.274;5.880;2024-03-02T12:38:37;2.50;;;1.00;;
77705;SDS011;66874;45.274;5.880;2024-03-02T12:41:02;1.25;;;0.80;;
77705;SDS011;66874;45.274;5.880;2024-03-02T12:43:31;1.10;;;0.80;;
77705;SDS011;66874;45.274;5.880;2024-03-02T12:45:56;1.60;;;0.80;;
77705;SDS011;66874;45.274;5.880;2024-03-02T12:48:23;6.45;;;0.98;;
77705;SDS011;66874;45.274;5.880;2024-03-02T12:50:48;1.48;;;0.70;;
77705;SDS011;66874;45.274;5.880;2024-03-02T12:53:14;1.52;;;1.00;;
77705;SDS011;66874;45.274;5.880;2024-03-02T12:55:41;2.70;;;1.00;;
77705;SDS011;66874;45.274;5.880;2024-03-02T12:58:07;1.88;;;0.90;;
77705;SDS011;66874;45.274;5.880;2024-03-02T13:00:32;2.17;;;0.90;;
77705;SDS011;66874;45.274;5.880;2024-03-02T13:03:00;1.55;;;0.85;;
77705;SDS011;66874;45.274;5.880;2024-03-02T13:05:31;1.55;;;1.10;;
77705;SDS011;66874;45.274;5.880;2024-03-02T13:07:58;3.63;;;0.90;;
77705;SDS011;66874;45.274;5.880;2024-03-02T13:10:24;1.00;;;0.90;;
77705;SDS011;66874;45.274;5.880;2024-03-02T13:12:50;3.78;;;2.10;;
77705;SDS011;66874;45.274;5.880;2024-03-02T13:15:15;6.05;;;1.63;;
77705;SDS011;66874;45.274;5.880;2024-03-02T13:17:40;30.92;;;14.18;;
77705;SDS011;66874;45.274;5.880;2024-03-02T13:20:06;4.13;;;1.33;;
77705;SDS011;66874;45.274;5.880;2024-03-02T13:22:35;6.93;;;3.00;;
77705;SDS011;66874;45.274;5.880;2024-03-02T13:25:01;4.97;;;3.13;;
77705;SDS011;66874;45.274;5.880;2024-03-02T13:27:29;3.55;;;1.77;;
77705;SDS011;66874;45.274;5.880;2024-03-02T13:29:56;3.30;;;2.00;;
77705;SDS011;66874;45.274;5.880;2024-03-02T13:32:22;3.78;;;2.85;;
77705;SDS011;66874;45.274;5.880;2024-03-02T13:34:49;3.63;;;1.75;;
77705;SDS011;66874;45.274;5.880;2024-03-02T13:37:15;11.45;;;2.55;;
77705;SDS011;66874;45.274;5.880;2024-03-02T13:39:40;0.90;;;0.65;;
77705;SDS011;66874;45.274;5.880;2024-03-02T13:42:10;0.50;;;0.40;;
77705;SDS011;66874;45.274;5.880;2024-03-02T13:44:36;3.03;;;0.60;;
77705;SDS011;66874;45.274;5.880;2024-03-02T13:47:02;0.68;;;0.50;;
77705;SDS011;66874;45.274;5.880;2024-03-02T13:49:28;0.65;;;0.30;;
77705;SDS011;66874;45.274;5.880;2024-03-02T13:52:02;2.20;;;0.60;;
77705;SDS011;66874;45.274;5.880;2024-03-02T13:54:36;1.85;;;0.40;;
77705;SDS011;66874;45.274;5.880;2024-03-02T13:57:03;0.77;;;0.70;;
77705;SDS011;66874;45.274;5.880;2024-03-02T13:59:28;1.77;;;0.82;;
77705;SDS011;66874;45.274;5.880;2024-03-02T14:01:54;0.40;;;0.30;;
77705;SDS011;66874;45.274;5.880;2024-03-02T14:04:19;1.33;;;0.50;;
77705;SDS011;66874;45.274;5.880;2024-03-02T14:06:45;1.05;;;0.50;;
77705;SDS011;66874;45.274;5.880;2024-03-02T14:09:11;4.35;;;0.43;;
77705;SDS011;66874;45.274;5.880;2024-03-02T14:11:36;4.00;;;0.45;;
77705;SDS011;66874;45.274;5.880;2024-03-02T14:14:01;0.60;;;0.30;;
77705;SDS011;66874;45.274;5.880;2024-03-02T14:16:27;0.95;;;0.60;;
77705;SDS011;66874;45.274;5.880;2024-03-02T14:18:53;0.60;;;0.43;;
77705;SDS011;66874;45.274;5.880;2024-03-02T14:21:18;0.52;;;0.40;;
77705;SDS011;66874;45.274;5.880;2024-03-02T14:23:44;2.83;;;0.60;;
77705;SDS011;66874;45.274;5.880;2024-03-02T14:26:09;1.05;;;0.38;;
77705;SDS011;66874;45.274;5.880;2024-03-02T14:28:34;2.60;;;0.50;;
77705;SDS011;66874;45.274;5.880;2024-03-02T14:31:00;0.40;;;0.30;;
77705;SDS011;66874;45.274;5.880;2024-03-02T14:33:26;1.00;;;0.38;;
77705;SDS011;66874;45.274;5.880;2024-03-02T14:35:52;0.98;;;0.38;;
77705;SDS011;66874;45.274;5.880;2024-03-02T14:38:18;1.08;;;0.60;;
77705;SDS011;66874;45.274;5.880;2024-03-02T14:40:44;1.33;;;0.50;;
77705;SDS011;66874;45.274;5.880;2024-03-02T14:43:09;1.27;;;0.65;;
77705;SDS011;66874;45.274;5.880;2024-03-02T14:45:35;1.58;;;0.47;;
77705;SDS011;66874;45.274;5.880;2024-03-02T14:48:00;1.05;;;0.50;;
77705;SDS011;66874;45.274;5.880;2024-03-02T14:50:26;0.65;;;0.57;;
77705;SDS011;66874;45.274;5.880;2024-03-02T14:52:53;1.42;;;0.50;;